createdAt,value
2019-05-12T00:00:21.838Z,9.32
2019-05-12T00:01:28.676Z,9.30
2019-05-12T00:02:32.848Z,9.31
2019-05-12T00:03:38.357Z,9.20
2019-05-12T00:04:43.874Z,9.21
2019-05-12T00:05:49.387Z,9.13
2019-05-12T00:06:54.884Z,9.10
2019-05-12T00:08:00.396Z,9.16
2019-05-12T00:09:08.172Z,9.13
2019-05-12T00:10:11.411Z,9.05
2019-05-12T00:11:17.941Z,9.13
2019-05-12T00:12:22.429Z,9.02
2019-05-12T00:13:28.099Z,9.05
2019-05-12T00:14:33.444Z,9.02
2019-05-12T00:15:38.952Z,8.99
2019-05-12T00:16:44.462Z,8.94
2019-05-12T00:17:49.963Z,9.01
2019-05-12T00:18:55.480Z,8.96
2019-05-12T00:20:00.991Z,9.01
2019-05-12T00:21:08.642Z,8.93
2019-05-12T00:22:11.996Z,8.96
2019-05-12T00:23:24.959Z,9.01
2019-05-12T00:24:23.027Z,9.02
2019-05-12T00:25:28.524Z,8.96
2019-05-12T00:26:34.035Z,9.01
2019-05-12T00:27:39.545Z,8.97
2019-05-12T00:28:45.045Z,9.04
2019-05-12T00:29:50.556Z,9.02
2019-05-12T00:30:58.059Z,8.97
2019-05-12T00:32:01.577Z,8.96
2019-05-12T00:33:09.335Z,9.04
2019-05-12T00:34:12.590Z,8.94
2019-05-12T00:35:18.290Z,8.94
2019-05-12T00:36:23.608Z,9.09
2019-05-12T00:37:29.132Z,9.02
2019-05-12T00:38:34.632Z,9.06
2019-05-12T00:39:40.131Z,9.06
2019-05-12T00:40:47.709Z,9.06
2019-05-12T00:41:51.142Z,9.15
2019-05-12T00:42:57.757Z,9.12
2019-05-12T00:44:02.159Z,9.15
2019-05-12T00:45:08.159Z,9.16
2019-05-12T00:46:13.174Z,9.12
2019-05-12T00:47:18.881Z,9.16
2019-05-12T00:48:24.188Z,9.20
2019-05-12T00:49:29.696Z,9.18
2019-05-12T00:50:35.210Z,9.32
2019-05-12T00:51:40.725Z,9.25
2019-05-12T00:52:48.591Z,9.31
2019-05-12T00:53:51.736Z,9.32
2019-05-12T00:54:58.656Z,9.30
2019-05-12T00:56:02.751Z,9.31
2019-05-12T00:57:08.263Z,9.25
2019-05-12T00:58:13.806Z,9.30
2019-05-12T00:59:19.277Z,9.35
2019-05-12T01:00:24.777Z,9.39
2019-05-12T01:01:30.294Z,9.38
2019-05-12T01:02:37.941Z,9.34
2019-05-12T01:03:41.307Z,9.34
2019-05-12T01:04:48.684Z,9.38
2019-05-12T01:05:52.336Z,9.35
2019-05-12T01:06:58.251Z,9.39
2019-05-12T01:08:03.341Z,9.38
2019-05-12T01:09:09.123Z,9.39
2019-05-12T01:10:14.401Z,9.39
2019-05-12T01:11:19.865Z,9.38
2019-05-12T01:12:25.375Z,9.35
2019-05-12T01:13:30.887Z,9.32
2019-05-12T01:14:38.270Z,9.35
2019-05-12T01:15:41.911Z,9.32
2019-05-12T01:16:48.619Z,9.40
2019-05-12T01:17:52.909Z,9.35
2019-05-12T01:18:58.661Z,9.34
2019-05-12T01:20:03.939Z,9.34
2019-05-12T01:21:09.439Z,9.35
2019-05-12T01:22:14.947Z,9.40
2019-05-12T01:23:23.393Z,9.24
2019-05-12T01:24:28.240Z,9.21
2019-05-12T01:25:31.481Z,9.32
2019-05-12T01:26:38.739Z,9.31
2019-05-12T01:27:42.501Z,9.30
2019-05-12T01:28:48.772Z,9.32
2019-05-12T01:29:53.516Z,9.24
2019-05-12T01:30:59.017Z,9.25
2019-05-12T01:32:04.533Z,9.27
2019-05-12T01:33:10.042Z,9.25
2019-05-12T01:34:15.555Z,9.31
2019-05-12T01:35:21.055Z,9.28
2019-05-12T01:36:28.659Z,9.30
2019-05-12T01:37:32.070Z,9.28
2019-05-12T01:38:38.039Z,9.35
2019-05-12T01:39:43.081Z,9.31
2019-05-12T01:40:48.594Z,9.27
2019-05-12T01:41:54.098Z,9.28
2019-05-12T01:42:59.616Z,9.28
2019-05-12T01:44:05.131Z,9.27
2019-05-12T01:45:10.638Z,9.32
2019-05-12T01:46:18.131Z,9.31
2019-05-12T01:47:21.642Z,9.20
2019-05-12T01:48:28.685Z,9.25
2019-05-12T01:49:32.666Z,9.31
2019-05-12T01:50:38.810Z,9.30
2019-05-12T01:51:43.671Z,9.34
2019-05-12T01:52:49.189Z,9.39
2019-05-12T01:54:08.623Z,9.32
2019-05-12T01:55:00.196Z,9.35
2019-05-12T01:56:07.781Z,9.38
2019-05-12T01:57:11.211Z,9.39
2019-05-12T01:58:19.316Z,9.38
2019-05-12T01:59:22.237Z,9.38
2019-05-12T02:00:28.588Z,9.35
2019-05-12T02:01:33.263Z,9.35
2019-05-12T02:02:38.756Z,9.39
2019-05-12T02:03:44.268Z,9.40
2019-05-12T02:04:49.774Z,9.40
2019-05-12T02:05:55.282Z,9.40
2019-05-12T02:07:00.794Z,9.42
2019-05-12T02:08:06.296Z,9.40
2019-05-12T02:09:11.809Z,9.40
2019-05-12T02:10:17.957Z,9.49
2019-05-12T02:11:22.816Z,9.34
2019-05-12T02:12:28.856Z,9.43
2019-05-12T02:13:33.838Z,9.35
2019-05-12T02:14:39.352Z,9.35
2019-05-12T02:15:44.862Z,9.40
2019-05-12T02:16:50.363Z,9.32
2019-05-12T02:17:55.883Z,9.35
2019-05-12T02:19:01.376Z,9.43
2019-05-12T02:20:07.752Z,9.46
2019-05-12T02:21:12.409Z,9.40
2019-05-12T02:22:19.002Z,9.52
2019-05-12T02:23:23.413Z,9.46
2019-05-12T02:24:30.579Z,9.53
2019-05-12T02:25:34.432Z,9.53
2019-05-12T02:26:39.941Z,9.50
2019-05-12T02:27:47.504Z,9.53
2019-05-12T02:28:50.952Z,9.56
2019-05-12T02:29:58.491Z,9.46
2019-05-12T02:31:01.979Z,9.53
2019-05-12T02:32:07.492Z,9.52
2019-05-12T02:33:15.948Z,9.53
2019-05-12T02:34:18.499Z,9.50
2019-05-12T02:35:24.838Z,9.57
2019-05-12T02:36:29.520Z,9.58
2019-05-12T02:37:35.926Z,9.56
2019-05-12T02:38:40.533Z,9.57
2019-05-12T02:39:46.039Z,9.56
2019-05-12T02:40:51.546Z,9.50
2019-05-12T02:41:57.058Z,9.58
2019-05-12T02:43:05.396Z,9.52
2019-05-12T02:44:08.080Z,9.50
2019-05-12T02:45:15.350Z,9.58
2019-05-12T02:46:19.090Z,9.52
2019-05-12T02:47:24.601Z,9.60
2019-05-12T02:48:30.112Z,9.53
2019-05-12T02:49:35.617Z,9.58
2019-05-12T02:50:41.125Z,9.58
2019-05-12T02:51:46.657Z,9.60
2019-05-12T02:52:54.554Z,9.57
2019-05-12T02:53:57.651Z,9.60
2019-05-12T02:55:05.977Z,9.63
2019-05-12T02:56:08.663Z,9.52
2019-05-12T02:57:14.390Z,9.57
2019-05-12T02:58:19.681Z,9.58
2019-05-12T02:59:25.550Z,9.63
2019-05-12T03:00:30.718Z,9.58
2019-05-12T03:01:36.211Z,9.68
2019-05-12T03:02:44.205Z,9.70
2019-05-12T03:03:47.227Z,9.66
2019-05-12T03:04:54.803Z,9.67
2019-05-12T03:05:58.245Z,9.73
2019-05-12T03:07:06.592Z,9.68
2019-05-12T03:08:09.272Z,9.67
2019-05-12T03:09:15.275Z,9.67
2019-05-12T03:10:20.278Z,9.73
2019-05-12T03:11:25.797Z,9.67
2019-05-12T03:12:34.272Z,9.70
2019-05-12T03:13:36.811Z,9.70
2019-05-12T03:14:44.717Z,9.70
2019-05-12T03:15:47.821Z,9.68
2019-05-12T03:16:54.020Z,9.71
2019-05-12T03:17:58.853Z,9.67
2019-05-12T03:19:05.218Z,9.71
2019-05-12T03:20:09.854Z,9.75
2019-05-12T03:21:15.496Z,9.71
2019-05-12T03:22:20.886Z,9.67
2019-05-12T03:23:26.380Z,9.68
2019-05-12T03:24:34.183Z,9.70
2019-05-12T03:25:37.575Z,9.78
2019-05-12T03:26:44.993Z,9.66
2019-05-12T03:27:48.413Z,9.66
2019-05-12T03:28:55.535Z,9.66
2019-05-12T03:29:59.454Z,9.71
2019-05-12T03:31:07.768Z,9.70
2019-05-12T03:32:10.458Z,9.70
2019-05-12T03:33:19.088Z,9.68
2019-05-12T03:34:21.474Z,9.67
2019-05-12T03:35:33.100Z,9.66
2019-05-12T03:36:39.136Z,9.68
2019-05-12T03:37:37.998Z,9.71
2019-05-12T03:38:44.733Z,9.70
2019-05-12T03:39:49.006Z,9.64
2019-05-12T03:40:55.146Z,9.71
2019-05-12T03:42:00.029Z,9.63
2019-05-12T03:43:05.877Z,9.70
2019-05-12T03:44:11.043Z,9.64
2019-05-12T03:45:16.553Z,9.63
2019-05-12T03:46:24.850Z,9.66
2019-05-12T03:47:27.564Z,9.64
2019-05-12T03:48:34.906Z,9.71
2019-05-12T03:49:38.592Z,9.67
2019-05-12T03:50:46.180Z,9.67
2019-05-12T03:51:49.606Z,9.71
2019-05-12T03:52:56.609Z,9.63
2019-05-12T03:54:00.620Z,9.61
2019-05-12T03:55:24.759Z,9.70
2019-05-12T03:56:14.861Z,9.68
2019-05-12T03:57:17.165Z,9.67
2019-05-12T03:58:25.298Z,9.63
2019-05-12T03:59:28.162Z,9.67
2019-05-12T04:00:35.907Z,9.66
2019-05-12T04:01:39.180Z,9.64
2019-05-12T04:02:45.552Z,9.64
2019-05-12T04:03:50.197Z,9.67
2019-05-12T04:04:55.751Z,9.68
2019-05-12T04:06:04.452Z,9.66
2019-05-12T04:07:06.741Z,9.66
2019-05-12T04:08:15.405Z,9.68
2019-05-12T04:09:17.739Z,9.67
2019-05-12T04:10:24.702Z,9.68
2019-05-12T04:11:28.757Z,9.68
2019-05-12T04:12:34.846Z,9.66
2019-05-12T04:13:39.772Z,9.66
2019-05-12T04:14:45.275Z,9.68
2019-05-12T04:15:50.794Z,9.70
2019-05-12T04:16:56.323Z,9.63
2019-05-12T04:18:04.910Z,9.71
2019-05-12T04:19:07.330Z,9.61
2019-05-12T04:20:15.235Z,9.67
2019-05-12T04:21:18.348Z,9.66
2019-05-12T04:22:24.912Z,9.61
2019-05-12T04:23:29.348Z,9.64
2019-05-12T04:24:35.871Z,9.63
2019-05-12T04:25:52.845Z,9.64
2019-05-12T04:26:45.880Z,9.63
2019-05-12T04:27:54.051Z,9.67
2019-05-12T04:28:56.895Z,9.68
2019-05-12T04:30:05.282Z,9.66
2019-05-12T04:31:07.919Z,9.63
2019-05-12T04:32:14.389Z,9.58
2019-05-12T04:33:18.924Z,9.71
2019-05-12T04:34:25.299Z,9.66
2019-05-12T04:35:29.944Z,9.66
2019-05-12T04:36:35.959Z,9.67
2019-05-12T04:37:40.958Z,9.63
2019-05-12T04:38:46.467Z,9.61
2019-05-12T04:39:55.223Z,9.56
2019-05-12T04:40:57.484Z,9.60
2019-05-12T04:42:05.292Z,9.64
2019-05-12T04:43:08.505Z,9.64
2019-05-12T04:44:15.134Z,9.53
2019-05-12T04:45:19.520Z,9.63
2019-05-12T04:46:25.478Z,9.70
2019-05-12T04:47:30.538Z,9.61
2019-05-12T04:48:36.170Z,9.68
2019-05-12T04:49:41.551Z,9.67
2019-05-12T04:50:47.064Z,9.67
2019-05-12T04:51:54.604Z,9.66
2019-05-12T04:52:58.085Z,9.67
2019-05-12T04:54:05.713Z,9.70
2019-05-12T04:55:09.095Z,9.71
2019-05-12T04:56:19.829Z,9.64
2019-05-12T04:57:21.089Z,9.71
2019-05-12T04:58:25.717Z,9.79
2019-05-12T04:59:34.316Z,9.71
2019-05-12T05:00:36.637Z,9.78
2019-05-12T05:01:45.108Z,9.82
2019-05-12T05:02:47.658Z,9.81
2019-05-12T05:03:54.566Z,9.79
2019-05-12T05:04:58.670Z,9.81
2019-05-12T05:06:04.594Z,9.78
2019-05-12T05:07:09.687Z,9.79
2019-05-12T05:08:19.528Z,9.79
2019-05-12T05:09:20.727Z,9.85
2019-05-12T05:10:26.212Z,9.79
2019-05-12T05:11:34.350Z,9.85
2019-05-12T05:12:37.233Z,9.79
2019-05-12T05:13:44.413Z,9.79
2019-05-12T05:14:48.245Z,9.85
2019-05-12T05:15:54.923Z,9.85
2019-05-12T05:16:59.298Z,9.81
2019-05-12T05:18:06.789Z,9.82
2019-05-12T05:19:10.283Z,9.81
2019-05-12T05:20:15.791Z,9.82
2019-05-12T05:21:21.300Z,9.83
2019-05-12T05:22:26.807Z,9.82
2019-05-12T05:23:33.500Z,9.85
2019-05-12T05:24:37.825Z,9.86
2019-05-12T05:25:43.591Z,9.82
2019-05-12T05:26:48.846Z,9.88
2019-05-12T05:27:54.361Z,9.91
2019-05-12T05:28:59.855Z,9.96
2019-05-12T05:30:05.363Z,10.00
2019-05-12T05:31:10.880Z,10.00
2019-05-12T05:32:16.385Z,10.06
2019-05-12T05:33:23.799Z,9.99
2019-05-12T05:34:27.402Z,9.99
2019-05-12T05:35:35.141Z,10.04
2019-05-12T05:36:38.413Z,10.00
2019-05-12T05:37:44.369Z,10.12
2019-05-12T05:38:51.048Z,10.14
2019-05-12T05:39:54.953Z,10.07
2019-05-12T05:41:05.869Z,10.09
2019-05-12T05:42:05.973Z,10.14
2019-05-12T05:43:12.814Z,10.06
2019-05-12T05:44:16.985Z,10.21
2019-05-12T05:45:25.877Z,10.24
2019-05-12T05:46:27.995Z,10.26
2019-05-12T05:47:33.728Z,10.25
2019-05-12T05:48:39.016Z,10.25
2019-05-12T05:49:44.520Z,10.24
2019-05-12T05:50:50.033Z,10.30
2019-05-12T05:51:57.545Z,10.32
2019-05-12T05:53:03.546Z,10.33
2019-05-12T05:54:06.566Z,10.30
2019-05-12T05:55:19.888Z,10.30
2019-05-12T05:56:18.378Z,10.33
2019-05-12T05:57:25.779Z,10.37
2019-05-12T05:58:28.597Z,10.36
2019-05-12T05:59:36.738Z,10.46
2019-05-12T06:00:39.665Z,10.34
2019-05-12T06:01:46.942Z,10.46
2019-05-12T06:02:50.647Z,10.47
2019-05-12T06:03:58.409Z,10.43
2019-05-12T06:05:04.211Z,10.53
2019-05-12T06:06:12.208Z,10.59
2019-05-12T06:07:14.370Z,10.56
2019-05-12T06:08:20.809Z,10.60
2019-05-12T06:09:23.693Z,10.53
2019-05-12T06:10:35.281Z,10.51
2019-05-12T06:11:34.748Z,10.53
2019-05-12T06:12:44.925Z,10.65
2019-05-12T06:13:45.717Z,10.63
2019-05-12T06:14:55.224Z,10.63
2019-05-12T06:15:56.745Z,10.70
2019-05-12T06:17:04.181Z,10.66
2019-05-12T06:18:07.769Z,10.71
2019-05-12T06:19:14.048Z,10.70
2019-05-12T06:20:18.785Z,10.77
2019-05-12T06:21:24.311Z,10.68
2019-05-12T06:22:29.787Z,10.74
2019-05-12T06:23:39.176Z,10.77
2019-05-12T06:24:40.804Z,10.81
2019-05-12T06:25:51.352Z,10.80
2019-05-12T06:26:59.532Z,10.86
2019-05-12T06:27:59.990Z,10.84
2019-05-12T06:29:04.424Z,10.91
2019-05-12T06:30:08.364Z,10.89
2019-05-12T06:31:13.998Z,10.81
2019-05-12T06:32:19.372Z,10.84
2019-05-12T06:33:31.682Z,10.78
2019-05-12T06:34:30.393Z,10.80
2019-05-12T06:35:40.813Z,10.91
2019-05-12T06:36:41.410Z,10.86
2019-05-12T06:37:57.110Z,10.86
2019-05-12T06:38:54.093Z,10.91
2019-05-12T06:40:00.464Z,10.96
2019-05-12T06:41:03.674Z,10.88
2019-05-12T06:42:14.152Z,10.98
2019-05-12T06:43:14.461Z,10.98
2019-05-12T06:44:19.973Z,10.96
2019-05-12T06:45:28.377Z,11.01
2019-05-12T06:46:30.994Z,11.01
2019-05-12T06:47:39.246Z,11.02
2019-05-12T06:48:43.317Z,11.10
2019-05-12T06:49:48.888Z,11.13
2019-05-12T06:50:53.511Z,11.10
2019-05-12T06:52:01.775Z,11.07
2019-05-12T06:53:05.176Z,11.14
2019-05-12T06:54:11.941Z,11.16
2019-05-12T06:55:15.082Z,11.11
2019-05-12T06:56:20.575Z,11.19
2019-05-12T06:57:28.777Z,11.24
2019-05-12T06:58:34.294Z,11.27
2019-05-12T06:59:37.103Z,11.28
2019-05-12T07:00:43.799Z,11.34
2019-05-12T07:01:49.897Z,11.43
2019-05-12T07:02:55.298Z,11.32
2019-05-12T07:04:00.650Z,11.36
2019-05-12T07:05:04.669Z,11.47
2019-05-12T07:06:17.510Z,11.39
2019-05-12T07:07:15.674Z,11.35
2019-05-12T07:08:27.509Z,11.36
2019-05-12T07:09:28.718Z,11.38
2019-05-12T07:10:42.673Z,11.38
2019-05-12T07:11:44.674Z,11.53
2019-05-12T07:12:58.173Z,11.44
2019-05-12T07:14:01.306Z,11.44
2019-05-12T07:14:57.695Z,11.53
2019-05-12T07:15:59.763Z,11.49
2019-05-12T07:17:06.231Z,11.52
2019-05-12T07:18:10.784Z,11.50
2019-05-12T07:19:22.485Z,11.47
2019-05-12T07:20:23.879Z,11.56
2019-05-12T07:21:27.481Z,11.53
2019-05-12T07:22:43.858Z,11.57
2019-05-12T07:23:38.328Z,11.67
2019-05-12T07:24:50.072Z,11.71
2019-05-12T07:25:49.333Z,11.67
2019-05-12T07:27:04.355Z,11.65
2019-05-12T07:28:02.720Z,11.61
2019-05-12T07:29:05.870Z,11.68
2019-05-12T07:30:13.525Z,11.70
2019-05-12T07:31:16.888Z,11.65
2019-05-12T07:32:24.617Z,11.68
2019-05-12T07:33:32.780Z,11.61
2019-05-12T07:34:33.526Z,11.68
2019-05-12T07:35:38.925Z,11.74
2019-05-12T07:36:44.435Z,11.75
2019-05-12T07:37:49.948Z,11.87
2019-05-12T07:39:03.773Z,11.87
2019-05-12T07:40:00.961Z,11.90
2019-05-12T07:41:10.542Z,11.94
2019-05-12T07:42:13.378Z,11.93
2019-05-12T07:43:20.614Z,12.04
2019-05-12T07:44:25.235Z,12.09
2019-05-12T07:45:28.511Z,12.02
2019-05-12T07:46:34.355Z,12.06
2019-05-12T07:47:39.531Z,12.11
2019-05-12T07:48:46.508Z,12.11
2019-05-12T07:49:50.553Z,12.19
2019-05-12T07:51:00.414Z,12.15
2019-05-12T07:52:03.632Z,12.16
2019-05-12T07:53:07.081Z,12.15
2019-05-12T07:54:14.293Z,12.13
2019-05-12T07:55:18.110Z,12.23
2019-05-12T07:56:25.966Z,12.21
2019-05-12T07:57:29.125Z,12.16
2019-05-12T07:58:34.627Z,12.06
2019-05-12T07:59:41.165Z,12.04
2019-05-12T08:00:45.658Z,12.06
2019-05-12T08:01:52.620Z,12.06
2019-05-12T08:02:56.677Z,12.09
2019-05-12T08:04:04.370Z,12.08
2019-05-12T08:05:11.174Z,11.99
2019-05-12T08:06:14.219Z,12.01
2019-05-12T08:07:19.754Z,11.94
2019-05-12T08:08:24.219Z,12.05
2019-05-12T08:09:32.258Z,12.08
2019-05-12T08:10:35.240Z,12.06
2019-05-12T08:11:40.763Z,12.06
2019-05-12T08:12:46.412Z,12.06
2019-05-12T08:13:54.106Z,12.01
2019-05-12T08:14:59.344Z,12.01
2019-05-12T08:16:03.706Z,12.04
2019-05-12T08:17:12.217Z,12.04
2019-05-12T08:18:14.113Z,12.04
2019-05-12T08:19:24.016Z,12.06
2019-05-12T08:20:24.828Z,12.02
2019-05-12T08:21:34.845Z,12.09
2019-05-12T08:22:35.853Z,11.99
2019-05-12T08:23:41.366Z,12.09
2019-05-12T08:24:48.218Z,12.06
2019-05-12T08:25:53.960Z,12.11
2019-05-12T08:27:03.039Z,12.21
2019-05-12T08:28:12.274Z,12.26
2019-05-12T08:29:10.391Z,12.23
2019-05-12T08:30:14.420Z,12.13
2019-05-12T08:31:23.505Z,12.19
2019-05-12T08:32:27.270Z,12.16
2019-05-12T08:33:30.959Z,12.30
2019-05-12T08:34:39.705Z,12.30
2019-05-12T08:35:43.859Z,12.41
2019-05-12T08:36:53.402Z,12.44
2019-05-12T08:37:54.425Z,12.51
2019-05-12T08:38:58.505Z,12.62
2019-05-12T08:40:07.510Z,12.57
2019-05-12T08:41:09.529Z,12.62
2019-05-12T08:42:15.042Z,12.67
2019-05-12T08:43:20.551Z,12.75
2019-05-12T08:44:33.457Z,12.79
2019-05-12T08:45:37.051Z,12.88
2019-05-12T08:46:37.105Z,12.88
2019-05-12T08:47:44.106Z,12.92
2019-05-12T08:48:51.538Z,12.99
2019-05-12T08:49:58.315Z,12.96
2019-05-12T08:50:59.123Z,13.03
2019-05-12T08:52:04.689Z,13.06
2019-05-12T08:53:12.254Z,13.15
2019-05-12T08:54:15.640Z,13.18
2019-05-12T08:55:25.157Z,13.18
2019-05-12T08:56:26.662Z,13.24
2019-05-12T08:57:40.508Z,13.29
2019-05-12T08:58:47.350Z,13.33
2019-05-12T08:59:44.146Z,13.32
2019-05-12T09:00:50.527Z,13.22
2019-05-12T09:01:54.268Z,13.22
2019-05-12T09:02:59.727Z,13.21
2019-05-12T09:04:09.264Z,13.15
2019-05-12T09:05:10.756Z,13.15
2019-05-12T09:06:19.722Z,13.11
2019-05-12T09:07:23.781Z,13.17
2019-05-12T09:08:27.296Z,13.07
2019-05-12T09:09:33.707Z,13.09
2019-05-12T09:10:38.307Z,13.15
2019-05-12T09:11:44.164Z,13.06
2019-05-12T09:12:49.331Z,13.04
2019-05-12T09:14:00.689Z,13.12
2019-05-12T09:15:00.347Z,13.12
2019-05-12T09:16:05.856Z,13.09
2019-05-12T09:17:11.380Z,13.04
2019-05-12T09:18:18.898Z,13.03
2019-05-12T09:19:24.914Z,13.09
2019-05-12T09:20:27.906Z,13.14
2019-05-12T09:21:34.868Z,13.21
2019-05-12T09:22:38.920Z,13.22
2019-05-12T09:23:45.662Z,13.29
2019-05-12T09:24:49.945Z,13.32
2019-05-12T09:25:57.144Z,13.22
2019-05-12T09:27:07.007Z,13.32
2019-05-12T09:28:06.477Z,13.25
2019-05-12T09:29:13.834Z,13.40
2019-05-12T09:30:17.500Z,13.32
2019-05-12T09:31:25.353Z,13.38
2019-05-12T09:32:28.528Z,13.33
2019-05-12T09:33:34.680Z,13.33
2019-05-12T09:34:46.929Z,13.36
2019-05-12T09:35:45.076Z,13.37
2019-05-12T09:36:51.943Z,13.40
2019-05-12T09:37:56.081Z,13.36
2019-05-12T09:39:03.007Z,13.27
2019-05-12T09:40:07.105Z,13.33
2019-05-12T09:41:13.961Z,13.43
2019-05-12T09:42:19.244Z,13.25
2019-05-12T09:43:24.042Z,13.37
2019-05-12T09:44:30.557Z,13.58
2019-05-12T09:45:34.701Z,13.55
2019-05-12T09:46:40.166Z,13.62
2019-05-12T09:47:45.671Z,13.70
2019-05-12T09:48:52.979Z,13.69
2019-05-12T09:49:56.699Z,13.79
2019-05-12T09:51:05.055Z,13.83
2019-05-12T09:52:07.723Z,13.81
2019-05-12T09:53:14.474Z,13.87
2019-05-12T09:54:18.781Z,13.87
2019-05-12T09:55:24.758Z,13.83
2019-05-12T09:56:29.763Z,13.81
2019-05-12T09:57:40.584Z,13.76
2019-05-12T09:58:40.837Z,13.74
2019-05-12T09:59:57.257Z,13.73
2019-05-12T10:00:54.158Z,13.67
2019-05-12T10:01:57.315Z,13.67
2019-05-12T10:03:04.911Z,13.59
2019-05-12T10:04:10.237Z,13.56
2019-05-12T10:05:14.378Z,13.62
2019-05-12T10:06:21.225Z,13.62
2019-05-12T10:07:24.899Z,13.71
2019-05-12T10:08:35.815Z,13.81
2019-05-12T10:09:35.895Z,13.79
2019-05-12T10:10:44.549Z,13.83
2019-05-12T10:11:53.931Z,13.88
2019-05-12T10:12:53.579Z,13.89
2019-05-12T10:14:00.491Z,13.91
2019-05-12T10:15:04.320Z,13.94
2019-05-12T10:16:09.028Z,13.98
2019-05-12T10:17:14.471Z,13.99
2019-05-12T10:18:19.994Z,14.09
2019-05-12T10:19:25.499Z,14.12
2019-05-12T10:20:35.254Z,14.25
2019-05-12T10:21:36.515Z,14.27
2019-05-12T10:22:43.715Z,14.32
2019-05-12T10:23:51.563Z,14.27
2019-05-12T10:24:58.323Z,14.34
2019-05-12T10:26:01.432Z,14.34
2019-05-12T10:27:04.074Z,14.53
2019-05-12T10:28:11.878Z,14.56
2019-05-12T10:29:20.345Z,14.64
2019-05-12T10:30:20.610Z,14.60
2019-05-12T10:31:29.660Z,14.67
2019-05-12T10:32:31.631Z,14.75
2019-05-12T10:33:37.137Z,14.80
2019-05-12T10:34:44.361Z,14.81
2019-05-12T10:35:48.156Z,14.86
2019-05-12T10:36:54.124Z,14.87
2019-05-12T10:38:00.244Z,14.84
2019-05-12T10:39:04.694Z,14.72
2019-05-12T10:40:10.214Z,14.72
2019-05-12T10:41:15.727Z,14.81
2019-05-12T10:42:21.236Z,14.81
2019-05-12T10:43:26.749Z,14.83
2019-05-12T10:44:39.189Z,14.83
2019-05-12T10:45:37.765Z,14.95
2019-05-12T10:46:43.281Z,14.94
2019-05-12T10:47:48.788Z,14.95
2019-05-12T10:48:54.304Z,14.90
2019-05-12T10:49:59.826Z,14.98
2019-05-12T10:51:05.331Z,14.98
2019-05-12T10:52:10.840Z,14.98
2019-05-12T10:53:17.901Z,15.05
2019-05-12T10:54:23.965Z,15.01
2019-05-12T10:55:27.376Z,15.05
2019-05-12T10:56:34.813Z,15.02
2019-05-12T10:57:39.144Z,15.08
2019-05-12T10:58:44.045Z,15.12
2019-05-12T10:59:49.420Z,15.12
2019-05-12T11:00:58.820Z,15.24
2019-05-12T11:02:00.447Z,15.13
2019-05-12T11:03:10.771Z,15.08
2019-05-12T11:04:11.478Z,15.06
2019-05-12T11:05:21.443Z,15.03
2019-05-12T11:06:24.299Z,15.08
2019-05-12T11:07:29.902Z,15.20
2019-05-12T11:08:33.527Z,15.13
2019-05-12T11:09:39.036Z,15.12
2019-05-12T11:10:44.541Z,15.20
2019-05-12T11:11:50.059Z,15.23
2019-05-12T11:12:59.257Z,15.13
2019-05-12T11:14:01.082Z,15.28
2019-05-12T11:15:08.185Z,15.24
2019-05-12T11:16:14.663Z,15.35
2019-05-12T11:17:17.612Z,15.39
2019-05-12T11:18:26.141Z,15.43
2019-05-12T11:19:28.658Z,15.46
2019-05-12T11:20:34.564Z,15.56
2019-05-12T11:21:39.669Z,15.54
2019-05-12T11:22:45.194Z,15.61
2019-05-12T11:23:50.691Z,15.63
2019-05-12T11:24:56.202Z,15.79
2019-05-12T11:26:03.737Z,15.75
2019-05-12T11:27:07.263Z,15.72
2019-05-12T11:28:14.022Z,15.76
2019-05-12T11:29:18.248Z,15.64
2019-05-12T11:30:23.906Z,15.63
2019-05-12T11:31:29.272Z,15.63
2019-05-12T11:32:37.902Z,15.49
2019-05-12T11:33:40.298Z,15.56
2019-05-12T11:34:45.811Z,15.42
2019-05-12T11:35:51.332Z,15.49
2019-05-12T11:36:56.844Z,15.51
2019-05-12T11:38:04.515Z,15.52
2019-05-12T11:39:07.869Z,15.54
2019-05-12T11:40:13.376Z,15.54
2019-05-12T11:41:20.263Z,15.54
2019-05-12T11:42:24.401Z,15.54
2019-05-12T11:43:29.976Z,15.63
2019-05-12T11:44:35.442Z,15.64
2019-05-12T11:45:40.930Z,15.76
2019-05-12T11:46:46.446Z,15.78
2019-05-12T11:47:59.158Z,15.85
2019-05-12T11:48:57.473Z,15.84
2019-05-12T11:50:05.051Z,15.70
2019-05-12T11:51:08.500Z,15.68
2019-05-12T11:52:18.517Z,15.67
2019-05-12T11:53:21.837Z,15.79
2019-05-12T11:54:27.899Z,15.61
2019-05-12T11:55:31.872Z,15.48
2019-05-12T11:56:40.421Z,15.54
2019-05-12T11:57:43.667Z,15.57
2019-05-12T11:58:51.318Z,15.52
2019-05-12T11:59:59.138Z,15.42
2019-05-12T12:01:06.409Z,15.36
2019-05-12T12:02:03.623Z,15.30
2019-05-12T12:03:13.188Z,15.26
2019-05-12T12:04:14.643Z,15.26
2019-05-12T12:05:20.161Z,15.30
2019-05-12T12:06:25.727Z,15.20
2019-05-12T12:07:33.151Z,15.17
2019-05-12T12:08:37.369Z,15.31
2019-05-12T12:09:43.822Z,15.30
2019-05-12T12:10:49.349Z,15.27
2019-05-12T12:11:55.881Z,15.39
2019-05-12T12:12:58.748Z,15.45
2019-05-12T12:14:06.425Z,15.49
2019-05-12T12:15:09.772Z,15.60
2019-05-12T12:16:15.303Z,15.54
2019-05-12T12:17:22.910Z,15.52
2019-05-12T12:18:26.306Z,15.63
2019-05-12T12:19:34.945Z,15.63
2019-05-12T12:20:37.329Z,15.61
2019-05-12T12:21:48.117Z,15.60
2019-05-12T12:22:48.350Z,15.63
2019-05-12T12:23:53.871Z,15.56
2019-05-12T12:25:05.127Z,15.60
2019-05-12T12:26:04.902Z,15.66
2019-05-12T12:27:10.417Z,15.67
2019-05-12T12:28:15.920Z,15.68
2019-05-12T12:29:21.432Z,15.68
2019-05-12T12:30:26.954Z,15.60
2019-05-12T12:31:35.578Z,15.60
2019-05-12T12:32:37.977Z,15.75
2019-05-12T12:33:47.037Z,15.81
2019-05-12T12:34:48.996Z,15.88
2019-05-12T12:35:56.759Z,15.99
2019-05-12T12:37:00.028Z,15.94
2019-05-12T12:38:05.525Z,16.01
2019-05-12T12:39:13.049Z,15.99
2019-05-12T12:40:16.560Z,15.96
2019-05-12T12:41:23.695Z,15.96
2019-05-12T12:42:30.369Z,15.74
2019-05-12T12:43:33.092Z,15.74
2019-05-12T12:44:38.615Z,15.63
2019-05-12T12:45:44.118Z,15.76
2019-05-12T12:46:51.273Z,15.76
2019-05-12T12:47:55.144Z,15.79
2019-05-12T12:49:06.455Z,15.79
2019-05-12T12:50:06.172Z,15.93
2019-05-12T12:51:15.329Z,16.00
2019-05-12T12:52:17.196Z,16.09
2019-05-12T12:53:23.837Z,16.11
2019-05-12T12:54:28.311Z,16.16
2019-05-12T12:55:38.021Z,16.15
2019-05-12T12:56:39.236Z,16.34
2019-05-12T12:57:46.400Z,16.23
2019-05-12T12:58:50.274Z,16.34
2019-05-12T12:59:55.781Z,16.48
2019-05-12T13:01:03.548Z,16.49
2019-05-12T13:02:09.120Z,16.45
2019-05-12T13:03:14.183Z,16.59
2019-05-12T13:04:17.828Z,16.56
2019-05-12T13:05:23.949Z,16.68
2019-05-12T13:06:28.858Z,16.67
2019-05-12T13:07:34.369Z,16.85
2019-05-12T13:08:39.883Z,16.90
2019-05-12T13:09:45.395Z,16.90
2019-05-12T13:10:51.921Z,16.93
2019-05-12T13:11:56.423Z,16.95
2019-05-12T13:13:04.201Z,16.92
2019-05-12T13:14:07.443Z,16.98
2019-05-12T13:15:14.444Z,17.03
2019-05-12T13:16:18.473Z,17.10
2019-05-12T13:17:27.183Z,17.08
2019-05-12T13:18:33.164Z,17.17
2019-05-12T13:19:35.014Z,17.15
2019-05-12T13:20:40.529Z,17.13
2019-05-12T13:21:46.039Z,17.17
2019-05-12T13:22:53.519Z,17.17
2019-05-12T13:23:57.068Z,17.18
2019-05-12T13:25:04.454Z,17.23
2019-05-12T13:26:08.097Z,17.17
2019-05-12T13:27:14.181Z,17.20
2019-05-12T13:28:19.579Z,17.11
2019-05-12T13:29:26.368Z,17.11
2019-05-12T13:30:45.080Z,17.13
2019-05-12T13:31:35.664Z,17.18
2019-05-12T13:32:41.170Z,17.11
2019-05-12T13:33:49.502Z,16.96
2019-05-12T13:34:52.212Z,16.88
2019-05-12T13:35:57.713Z,16.93
2019-05-12T13:37:03.501Z,16.77
2019-05-12T13:38:08.737Z,16.81
2019-05-12T13:39:16.322Z,16.96
2019-05-12T13:40:19.766Z,16.89
2019-05-12T13:41:25.279Z,16.89
2019-05-12T13:42:35.881Z,16.96
2019-05-12T13:43:36.303Z,16.93
2019-05-12T13:44:43.623Z,16.99
2019-05-12T13:45:47.336Z,17.06
2019-05-12T13:46:54.761Z,17.08
2019-05-12T13:47:58.365Z,17.03
2019-05-12T13:49:03.878Z,17.03
2019-05-12T13:50:13.387Z,17.06
2019-05-12T13:51:15.833Z,17.03
2019-05-12T13:52:25.442Z,17.00
2019-05-12T13:53:25.943Z,16.98
2019-05-12T13:54:31.442Z,17.00
2019-05-12T13:55:39.411Z,16.96
2019-05-12T13:56:44.284Z,16.92
2019-05-12T13:57:56.384Z,17.00
2019-05-12T13:58:53.970Z,16.95
2019-05-12T14:00:06.830Z,16.95
2019-05-12T14:01:20.879Z,16.96
2019-05-12T14:02:13.972Z,16.90
2019-05-12T14:03:15.550Z,16.86
2019-05-12T14:04:22.279Z,16.86
2019-05-12T14:05:26.567Z,16.86
2019-05-12T14:06:37.883Z,16.88
2019-05-12T14:07:37.624Z,16.74
2019-05-12T14:08:44.555Z,16.77
2019-05-12T14:09:48.628Z,16.73
2019-05-12T14:10:59.198Z,16.68
2019-05-12T14:11:59.673Z,16.68
2019-05-12T14:13:05.182Z,16.55
2019-05-12T14:14:14.097Z,16.56